Time;durP1;ratioP1;P1;durP2;ratioP2;P2;SDS_P1;SDS_P2;PMS_P1;PMS_P2;Temp;Humidity;BMP_temperature;BMP_pressure;BME280_temperature;BME280_humidity;BME280_pressure;Samples;Min_cycle;Max_cycle;Signal;HPM_P1;HPM_P2
2021/08/01 00:01:35;;;;;;;;;;;16.00;99.90;;;14.72;98.48;100591.59;3508784;40;103897;-44
2021/08/01 00:04:02;;;;;;;;;;;16.00;99.90;;;14.76;98.34;100595.50;3508777;40;102079;-41
2021/08/01 00:06:29;;;;;;;;;;;16.00;99.90;;;14.78;98.58;100604.34;3508672;40;103754;-41
2021/08/01 00:08:56;;;;;;;;;;;16.00;99.90;;;14.79;98.61;100596.94;3508740;40;102389;-41
2021/08/01 00:11:24;;;;;;;;;;;16.00;99.90;;;14.80;98.43;100604.09;3508549;40;103238;-41
2021/08/01 00:13:51;;;;;;;;;;;16.10;99.90;;;14.81;98.58;100595.59;3508589;40;102252;-40
2021/08/01 00:16:18;;;;;;;;;;;16.00;99.90;;;14.84;98.53;100583.31;3508605;40;103459;-40
2021/08/01 00:18:46;;;;;;;;;;;16.10;99.90;;;14.87;98.54;100584.72;3508398;40;102419;-40
2021/08/01 00:21:13;;;;;;;;;;;16.10;99.90;;;14.88;98.70;100584.47;3508746;40;102268;-41
2021/08/01 00:23:40;;;;;;;;;;;16.10;99.90;;;14.89;98.60;100580.63;3508619;40;102156;-40
2021/08/01 00:26:07;;;;;;;;;;;16.10;99.90;;;14.89;98.63;100580.63;3508073;40;102207;-41
2021/08/01 00:28:35;;;;;;;;;;;16.10;99.90;;;14.90;98.76;100576.00;3508935;40;102431;-41
2021/08/01 00:31:02;;;;;;;;;;;16.20;99.90;;;14.91;98.79;100577.66;3508604;40;102220;-41
2021/08/01 00:33:30;;;;;;;;;;;16.20;99.90;;;14.93;98.81;100579.06;3508543;40;102363;-43
2021/08/01 00:35:57;;;;;;;;;;;16.20;99.90;;;14.92;98.52;100571.09;3508099;40;102831;-41
2021/08/01 00:38:25;;;;;;;;;;;16.20;99.90;;;14.87;98.64;100566.31;3508492;40;102522;-41
2021/08/01 00:40:52;;;;;;;;;;;16.20;99.90;;;14.94;98.79;100569.75;3508532;40;102271;-41
2021/08/01 00:43:19;;;;;;;;;;;16.20;99.90;;;14.96;98.67;100573.06;3508744;40;102151;-41
2021/08/01 00:45:46;;;;;;;;;;;16.20;99.90;;;14.94;98.88;100564.25;3508632;40;102169;-40
2021/08/01 00:48:14;;;;;;;;;;;16.20;99.90;;;14.95;98.77;100562.34;3508569;40;102376;-40
2021/08/01 00:50:43;;;;;;;;;;;16.20;99.90;;;14.93;98.83;100567.25;3508695;40;103249;-41
2021/08/01 00:53:12;;;;;;;;;;;16.10;99.90;;;14.90;98.46;100563.09;3508790;40;102345;-41
2021/08/01 00:55:40;;;;;;;;;;;16.10;99.90;;;14.94;98.64;100560.69;3507171;40;102339;-42
2021/08/01 00:58:08;;;;;;;;;;;16.20;99.90;;;14.88;98.31;100562.50;3508407;40;104430;-42
2021/08/01 01:03:53;;;;;;;;;;;16.10;99.90;;;14.88;98.77;100559.75;3508307;40;102388;-38
2021/08/01 01:06:41;;;;;;;;;;;16.10;99.90;;;14.88;98.88;100558.94;3508147;40;104937;-41
2021/08/01 01:09:20;;;;;;;;;;;16.10;99.90;;;14.89;98.98;100566.91;3507136;40;103027;-42
2021/08/01 01:12:04;;;;;;;;;;;16.20;99.90;;;14.87;98.79;100549.03;3508723;40;102422;-41
2021/08/01 01:14:38;;;;;;;;;;;16.10;99.90;;;14.92;99.10;100560.09;3509017;40;102213;-41
2021/08/01 01:17:06;;;;;;;;;;;16.20;99.90;;;14.92;99.11;100566.41;3508769;40;103113;-41
2021/08/01 01:20:01;;;;;;;;;;;16.20;99.90;;;14.91;99.10;100553.75;3508328;40;103172;-41
2021/08/01 01:23:09;;;;;;;;;;;16.20;99.90;;;14.91;99.36;100564.75;3507197;40;102381;-41
2021/08/01 01:26:12;;;;;;;;;;;16.20;99.90;;;14.92;99.23;100560.91;3507399;40;102426;-41
2021/08/01 01:28:48;;;;;;;;;;;16.20;99.90;;;14.93;99.26;100554.34;3507990;40;103132;-41
2021/08/01 01:31:16;;;;;;;;;;;16.20;99.90;;;14.94;99.34;100561.50;3508528;40;102403;-40
2021/08/01 01:33:59;;;;;;;;;;;16.20;99.90;;;14.94;99.31;100558.75;3508436;40;103126;-41
2021/08/01 01:36:29;;;;;;;;;;;16.20;99.90;;;14.95;99.05;100554.91;3508013;40;102382;-41
2021/08/01 01:39:00;;;;;;;;;;;16.20;99.90;;;14.95;99.24;100556.84;3508405;40;102103;-40
2021/08/01 01:41:59;;;;;;;;;;;16.20;99.90;;;14.95;99.19;100559.59;3514967;39;102365;-40
2021/08/01 01:44:42;;;;;;;;;;;16.20;99.90;;;14.95;99.30;100554.09;3506973;40;102501;-40
2021/08/01 01:47:11;;;;;;;;;;;16.20;99.90;;;14.95;99.39;100548.63;3508141;40;102981;-43
2021/08/01 01:49:40;;;;;;;;;;;16.20;99.90;;;14.95;99.53;100554.09;3508503;40;102569;-39
2021/08/01 01:52:14;;;;;;;;;;;16.20;99.90;;;14.95;99.62;100548.63;3508184;40;102246;-42
2021/08/01 01:54:47;;;;;;;;;;;16.20;99.90;;;14.95;99.77;100548.63;3506934;40;102211;-41
2021/08/01 01:57:16;;;;;;;;;;;16.20;99.90;;;14.99;99.69;100554.44;3508037;40;102399;-41
2021/08/01 01:59:44;;;;;;;;;;;16.20;99.90;;;14.96;99.64;100550.28;3508015;40;104076;-41
2021/08/01 02:02:14;;;;;;;;;;;16.20;99.90;;;14.94;99.40;100545.00;3506904;40;102430;-41
2021/08/01 02:04:43;;;;;;;;;;;16.20;99.90;;;14.92;99.64;100554.59;3507093;40;103133;-40
2021/08/01 02:07:35;;;;;;;;;;;16.20;99.90;;;14.92;99.63;100557.34;3655310;23;103135;-39
2021/08/01 02:10:45;;;;;;;;;;;16.20;99.90;;;14.90;99.65;100560.34;3547923;39;102220;-39
2021/08/01 02:13:18;;;;;;;;;;;16.10;99.90;;;14.89;99.65;100563.34;3549484;39;102372;-39
2021/08/01 02:15:50;;;;;;;;;;;16.20;99.90;;;14.88;100.00;100567.16;3548777;39;103084;-39
2021/08/01 02:18:36;;;;;;;;;;;16.10;99.90;;;14.87;100.00;100563.56;3549430;39;102485;-39
2021/08/01 02:21:06;;;;;;;;;;;16.10;99.90;;;14.84;100.00;100568.72;3549584;39;102318;-40
2021/08/01 02:23:42;;;;;;;;;;;16.10;99.90;;;14.84;100.00;100563.22;3549748;39;102397;-39
2021/08/01 02:26:12;;;;;;;;;;;16.10;99.90;;;14.82;100.00;100567.06;3549153;39;102781;-39
2021/08/01 02:28:42;;;;;;;;;;;16.10;99.90;;;14.82;100.00;100560.75;3549953;39;102982;-39
2021/08/01 02:31:10;;;;;;;;;;;16.10;99.90;;;14.80;99.93;100558.22;3549247;39;102348;-39
2021/08/01 02:33:38;;;;;;;;;;;16.10;99.90;;;14.74;99.82;100547.44;3549527;39;102837;-39
2021/08/01 02:36:17;;;;;;;;;;;16.10;99.90;;;14.76;99.37;100557.06;3549230;39;102330;-39
2021/08/01 02:38:51;;;;;;;;;;;16.00;99.90;;;14.77;99.03;100561.47;3549956;39;102351;-39
2021/08/01 02:41:36;;;;;;;;;;;16.00;99.90;;;14.76;98.75;100568.06;3549623;39;103151;-39
2021/08/01 02:44:13;;;;;;;;;;;16.00;99.90;;;14.79;98.53;100564.81;3549469;39;102784;-39
2021/08/01 02:46:42;;;;;;;;;;;16.10;99.90;;;14.78;98.34;100562.31;3548510;39;105062;-39
2021/08/01 02:49:17;;;;;;;;;;;16.00;99.90;;;14.77;98.18;100563.41;3550816;39;102311;-39
2021/08/01 02:51:55;;;;;;;;;;;16.00;99.90;;;14.75;98.57;100571.88;3549972;39;103079;-40
2021/08/01 02:54:24;;;;;;;;;;;16.00;99.90;;;14.75;98.51;100568.31;3549783;39;102179;-39
2021/08/01 02:56:56;;;;;;;;;;;16.00;99.90;;;14.75;98.85;100565.56;3550811;39;103067;-40
2021/08/01 02:59:26;;;;;;;;;;;16.00;99.90;;;14.73;98.87;100568.56;3551668;39;102245;-39
2021/08/01 03:01:55;;;;;;;;;;;16.00;99.90;;;14.74;99.55;100575.72;3551513;39;102231;-39
2021/08/01 03:04:26;;;;;;;;;;;16.00;99.90;;;14.78;99.40;100562.31;3549610;39;102529;-39
2021/08/01 03:06:54;;;;;;;;;;;16.00;99.90;;;14.84;98.78;100560.47;3550726;39;104172;-39
2021/08/01 03:09:22;;;;;;;;;;;16.10;99.90;;;14.79;98.66;100561.25;3549768;39;102561;-40
2021/08/01 03:11:49;;;;;;;;;;;16.00;99.90;;;14.74;98.23;100559.22;3549487;39;103216;-40
2021/08/01 03:14:17;;;;;;;;;;;16.00;99.90;;;14.71;98.32;100567.97;3549404;39;103603;-39
2021/08/01 03:16:45;;;;;;;;;;;16.00;99.90;;;14.68;98.06;100560.19;3549672;39;104010;-39
2021/08/01 03:19:12;;;;;;;;;;;15.90;99.90;;;14.68;98.17;100562.94;3550724;39;102433;-39
2021/08/01 03:21:42;;;;;;;;;;;15.90;99.90;;;14.70;98.20;100569.00;3551059;39;102479;-39
2021/08/01 03:24:22;;;;;;;;;;;15.90;99.90;;;14.67;98.49;100559.34;3549441;39;103971;-39
2021/08/01 03:26:54;;;;;;;;;;;15.90;99.90;;;14.63;98.46;100551.88;3550573;39;102237;-39
2021/08/01 03:29:23;;;;;;;;;;;15.90;99.90;;;14.65;98.19;100560.69;3541528;39;102944;-39
2021/08/01 03:31:51;;;;;;;;;;;15.90;99.90;;;14.66;97.56;100562.34;3549555;39;104317;-39
2021/08/01 03:34:21;;;;;;;;;;;15.90;99.90;;;14.57;97.33;100569.31;3550507;39;102379;-39
2021/08/01 03:36:50;;;;;;;;;;;15.90;99.90;;;14.49;97.57;100568.63;3549625;39;103973;-39
2021/08/01 03:39:36;;;;;;;;;;;15.80;99.90;;;14.44;97.73;100575.91;3550741;39;102211;-39
2021/08/01 03:42:04;;;;;;;;;;;15.80;99.90;;;14.35;97.77;100561.78;3551043;39;104542;-39
2021/08/01 03:44:31;;;;;;;;;;;15.70;99.90;;;14.35;98.00;100570.00;3550443;39;102176;-39
2021/08/01 03:46:59;;;;;;;;;;;15.70;99.90;;;14.35;97.72;100570.00;3550951;39;102208;-39
2021/08/01 03:49:26;;;;;;;;;;;15.70;99.90;;;14.34;97.81;100577.41;3550731;39;102384;-39
2021/08/01 03:51:53;;;;;;;;;;;15.70;99.90;;;14.28;98.05;100575.63;3550937;39;103146;-39
2021/08/01 03:54:20;;;;;;;;;;;15.60;99.90;;;14.23;98.09;100567.31;3550281;39;102360;-40
2021/08/01 03:56:47;;;;;;;;;;;15.60;99.90;;;14.22;98.09;100569.19;3550577;39;102063;-39
2021/08/01 03:59:15;;;;;;;;;;;15.50;99.90;;;14.20;97.81;100571.34;3549627;39;102825;-39
2021/08/01 04:01:42;;;;;;;;;;;15.50;99.90;;;14.17;98.01;100560.03;3550906;39;102232;-40
2021/08/01 04:04:09;;;;;;;;;;;15.50;99.90;;;14.13;97.81;100564.34;3550304;39;102474;-39
2021/08/01 04:06:36;;;;;;;;;;;15.50;99.90;;;14.15;97.69;100574.00;3550521;39;102390;-39
2021/08/01 04:09:04;;;;;;;;;;;15.50;99.90;;;14.13;97.81;100575.31;3550352;39;102394;-39
2021/08/01 04:11:37;;;;;;;;;;;15.40;99.90;;;14.07;98.00;100575.19;3550500;39;103133;-39
2021/08/01 04:14:04;;;;;;;;;;;15.40;99.90;;;14.05;98.25;100571.88;3550579;39;102282;-39
2021/08/01 04:16:32;;;;;;;;;;;15.40;99.90;;;14.05;98.22;100571.03;3550371;39;102308;-40
2021/08/01 04:18:59;;;;;;;;;;;15.40;99.90;;;14.00;98.19;100571.75;3550210;39;102397;-39
2021/08/01 04:21:26;;;;;;;;;;;15.30;99.90;;;13.99;98.33;100570.09;3550402;39;102147;-39
2021/08/01 04:23:53;;;;;;;;;;;15.30;99.90;;;13.94;98.22;100570.81;3550074;39;102351;-38
2021/08/01 04:26:20;;;;;;;;;;;15.30;99.90;;;14.03;98.21;100565.78;3550492;39;102283;-39
2021/08/01 04:28:47;;;;;;;;;;;15.30;99.90;;;14.04;97.63;100570.19;3550782;39;102179;-39
2021/08/01 04:31:15;;;;;;;;;;;15.30;99.90;;;14.01;97.48;100565.22;3550287;39;103058;-39
2021/08/01 04:33:42;;;;;;;;;;;15.30;99.90;;;14.01;97.76;100569.84;3550411;39;103463;-39
2021/08/01 04:36:10;;;;;;;;;;;15.30;99.90;;;13.96;97.53;100570.59;3550095;39;103146;-39
2021/08/01 04:38:37;;;;;;;;;;;15.30;99.90;;;13.94;97.74;100570.00;3550601;39;102248;-39
2021/08/01 04:41:04;;;;;;;;;;;15.30;99.90;;;13.94;97.61;100573.56;3550658;39;102272;-39
2021/08/01 04:43:31;;;;;;;;;;;15.30;99.90;;;13.96;97.35;100570.59;3550384;39;102303;-39
2021/08/01 04:45:59;;;;;;;;;;;15.30;99.90;;;13.91;97.24;100563.06;3550144;39;102296;-39
2021/08/01 04:48:26;;;;;;;;;;;15.30;99.90;;;13.97;97.39;100576.88;3550239;39;102450;-39
2021/08/01 04:50:53;;;;;;;;;;;15.30;99.90;;;13.93;97.46;100571.88;3550292;39;104223;-39
2021/08/01 04:53:20;;;;;;;;;;;15.20;99.90;;;13.90;97.30;100577.00;3550631;39;102276;-39
2021/08/01 04:55:48;;;;;;;;;;;15.20;99.90;;;13.87;97.38;100574.75;3550363;39;102101;-39
2021/08/01 04:58:15;;;;;;;;;;;15.20;99.90;;;13.83;97.65;100568.09;3550652;39;102371;-39
2021/08/01 05:00:43;;;;;;;;;;;15.10;99.90;;;13.80;97.77;100575.72;3550304;39;102435;-39
2021/08/01 05:03:10;;;;;;;;;;;15.10;99.90;;;13.81;97.84;100562.88;3550334;39;102353;-40
2021/08/01 05:05:38;;;;;;;;;;;15.10;99.90;;;13.83;97.93;100571.69;3549906;39;102269;-39
2021/08/01 05:08:06;;;;;;;;;;;15.10;99.90;;;13.81;97.92;100563.69;3550171;39;102394;-39
2021/08/01 05:10:33;;;;;;;;;;;15.10;99.90;;;13.85;97.92;100569.53;3550112;39;103026;-39
2021/08/01 05:13:05;;;;;;;;;;;15.10;99.90;;;13.84;97.85;100578.84;3550184;39;102291;-39
2021/08/01 05:15:32;;;;;;;;;;;15.10;99.90;;;13.82;97.46;100575.50;3550122;39;102239;-39
2021/08/01 05:18:00;;;;;;;;;;;15.20;99.90;;;13.79;97.49;100579.53;3550296;39;102475;-39
2021/08/01 05:20:28;;;;;;;;;;;15.10;99.90;;;13.78;97.75;100586.09;3550399;39;103033;-39
2021/08/01 05:22:55;;;;;;;;;;;15.10;99.90;;;13.83;97.61;100579.06;3550171;39;102340;-39
2021/08/01 05:25:22;;;;;;;;;;;15.10;99.90;;;13.87;97.82;100574.75;3549869;39;102336;-39
2021/08/01 05:27:49;;;;;;;;;;;15.10;99.90;;;13.91;97.43;100576.78;3549953;39;102418;-39
2021/08/01 05:30:17;;;;;;;;;;;15.20;99.90;;;13.93;97.43;100582.03;3550130;39;104241;-39
2021/08/01 05:32:44;;;;;;;;;;;15.20;99.90;;;13.97;97.44;100572.25;3550293;39;102788;-39
2021/08/01 05:35:11;;;;;;;;;;;15.20;99.90;;;14.02;97.42;100582.47;3549903;39;102698;-39
2021/08/01 05:37:39;;;;;;;;;;;15.30;99.90;;;14.10;97.34;100577.47;3549936;39;102462;-39
2021/08/01 05:40:08;;;;;;;;;;;15.30;99.90;;;14.27;97.37;100584.09;3549863;39;102279;-39
2021/08/01 05:42:36;;;;;;;;;;;15.40;99.90;;;14.47;97.09;100576.28;3549993;39;102978;-39
2021/08/01 05:45:05;;;;;;;;;;;15.60;99.90;;;14.69;97.13;100583.81;3550197;39;103110;-40
2021/08/01 05:47:36;;;;;;;;;;;15.70;99.90;;;14.93;96.02;100581.00;3550193;39;102088;-39
2021/08/01 05:50:04;;;;;;;;;;;15.90;99.90;;;15.10;94.15;100567.25;3550474;39;102606;-40
2021/08/01 05:52:32;;;;;;;;;;;16.10;99.90;;;15.38;93.34;100580.09;3550027;39;102129;-38
2021/08/01 05:54:59;;;;;;;;;;;16.30;99.90;;;15.58;91.69;100572.41;3549782;39;102369;-39
2021/08/01 05:57:26;;;;;;;;;;;16.50;99.90;;;15.75;90.84;100572.38;3550033;39;102248;-39
2021/08/01 05:59:54;;;;;;;;;;;16.70;99.90;;;15.99;89.47;100577.69;3549893;39;102499;-39
2021/08/01 06:02:21;;;;;;;;;;;16.90;99.90;;;16.03;88.33;100563.13;3550171;39;102121;-39
2021/08/01 06:04:50;;;;;;;;;;;17.00;99.90;;;15.90;85.85;100578.09;3549864;39;102190;-39
2021/08/01 06:07:18;;;;;;;;;;;17.00;99.90;;;15.73;86.53;100574.53;3549845;39;102392;-39
2021/08/01 06:09:47;;;;;;;;;;;16.90;99.90;;;15.50;86.59;100574.47;3549890;39;102255;-39
2021/08/01 06:12:15;;;;;;;;;;;16.80;99.90;;;15.35;87.29;100579.75;3549804;39;102062;-39
2021/08/01 06:14:42;;;;;;;;;;;16.60;99.90;;;15.23;88.00;100583.41;3549552;39;102301;-40
2021/08/01 06:17:10;;;;;;;;;;;16.50;99.90;;;15.16;88.88;100579.19;3549889;39;102423;-39
2021/08/01 06:19:37;;;;;;;;;;;16.40;99.90;;;15.06;89.28;100566.91;3549556;39;102164;-39
2021/08/01 06:22:04;;;;;;;;;;;16.30;99.90;;;15.08;89.78;100566.69;3549608;39;102107;-39
2021/08/01 06:24:32;;;;;;;;;;;16.30;99.90;;;15.08;89.18;100570.25;3549202;39;103248;-40
2021/08/01 06:26:59;;;;;;;;;;;16.30;99.90;;;15.14;89.42;100573.09;3550843;39;102492;-39
2021/08/01 06:29:26;;;;;;;;;;;16.30;99.90;;;15.42;90.83;100568.59;3551366;39;102647;-39
2021/08/01 06:31:53;;;;;;;;;;;16.40;99.90;;;15.73;90.88;100566.28;3550871;39;102149;-39
2021/08/01 06:34:23;;;;;;;;;;;16.60;99.90;;;16.04;89.44;100569.50;3550945;39;103029;-39
2021/08/01 06:36:51;;;;;;;;;;;16.90;99.90;;;16.25;87.37;100565.06;3550760;39;102410;-39
2021/08/01 06:39:18;;;;;;;;;;;17.10;99.90;;;16.51;87.35;100570.84;3551032;39;103060;-39
2021/08/01 06:41:45;;;;;;;;;;;17.30;99.90;;;16.73;86.79;100576.34;3550927;39;102401;-39
2021/08/01 06:44:13;;;;;;;;;;;17.50;99.90;;;16.72;82.86;100571.09;3550629;39;103159;-39
2021/08/01 06:46:40;;;;;;;;;;;17.60;99.90;;;16.84;82.54;100566.22;3550871;39;102410;-39
2021/08/01 06:49:07;;;;;;;;;;;17.70;99.90;;;17.03;83.37;100569.50;3550714;39;102173;-39
2021/08/01 06:51:38;;;;;;;;;;;17.90;99.90;;;17.18;83.36;100567.94;3550937;39;102854;-40
2021/08/01 06:54:05;;;;;;;;;;;18.00;99.90;;;17.32;82.71;100576.59;3550686;39;102310;-41
2021/08/01 06:56:33;;;;;;;;;;;18.10;99.90;;;17.48;81.06;100572.00;3550536;39;102125;-39
2021/08/01 06:59:00;;;;;;;;;;;18.30;99.90;;;17.65;81.04;100569.94;3550587;39;103981;-39
2021/08/01 07:01:27;;;;;;;;;;;18.50;99.90;;;17.72;77.96;100566.94;3550758;39;102404;-39
2021/08/01 07:03:55;;;;;;;;;;;18.60;99.90;;;17.86;78.09;100574.72;3550972;39;102234;-39
2021/08/01 07:06:22;;;;;;;;;;;18.70;99.90;;;17.95;77.73;100568.44;3550518;39;102046;-39
2021/08/01 07:08:49;;;;;;;;;;;18.80;99.90;;;17.87;75.49;100563.44;3550759;39;102161;-40
2021/08/01 07:11:16;;;;;;;;;;;18.80;99.90;;;18.01;75.38;100560.19;3550656;39;102324;-39
2021/08/01 07:13:45;;;;;;;;;;;18.90;99.90;;;18.14;74.78;100565.25;3550803;39;102312;-39
2021/08/01 07:16:13;;;;;;;;;;;19.00;99.90;;;18.11;77.36;100565.78;3551060;39;102501;-40
2021/08/01 07:18:40;;;;;;;;;;;19.00;99.90;;;18.25;77.95;100564.19;3550906;39;103935;-40
2021/08/01 07:21:07;;;;;;;;;;;19.10;99.90;;;18.31;75.61;100570.56;3550973;39;103566;-39
2021/08/01 07:23:34;;;;;;;;;;;19.20;99.90;;;18.43;75.38;100573.06;3550619;39;103544;-40
2021/08/01 07:26:02;;;;;;;;;;;19.30;99.90;;;18.23;72.54;100574.66;3549481;39;102535;-40
2021/08/01 07:28:32;;;;;;;;;;;19.30;99.90;;;18.11;73.90;100579.59;3550402;39;103185;-39
2021/08/01 07:30:59;;;;;;;;;;;19.20;99.90;;;18.05;76.70;100577.91;3550993;39;102278;-40
2021/08/01 07:33:26;;;;;;;;;;;19.10;99.90;;;18.06;75.99;100574.06;3550582;39;104049;-40
2021/08/01 07:35:54;;;;;;;;;;;19.00;99.90;;;18.29;74.38;100580.19;3550489;39;102221;-40
2021/08/01 07:38:21;;;;;;;;;;;19.20;99.90;;;18.61;75.40;100593.84;3550184;39;102258;-39
2021/08/01 07:40:48;;;;;;;;;;;19.40;99.90;;;18.65;72.28;100591.38;3550807;39;102150;-40
2021/08/01 07:43:16;;;;;;;;;;;19.50;99.90;;;18.60;72.80;100588.59;3551068;39;103115;-40
2021/08/01 07:45:43;;;;;;;;;;;19.50;99.90;;;18.44;71.83;100585.78;3550863;39;102166;-40
2021/08/01 07:48:10;;;;;;;;;;;19.50;99.90;;;18.32;73.06;100588.78;3550763;39;102240;-40
2021/08/01 07:50:37;;;;;;;;;;;19.40;99.90;;;18.13;72.83;100593.97;3550546;39;102389;-41
2021/08/01 07:53:04;;;;;;;;;;;19.30;99.90;;;18.08;73.22;100589.22;3550825;39;103119;-39
2021/08/01 07:55:32;;;;;;;;;;;19.20;99.90;;;18.06;75.01;100590.63;3550506;39;102172;-39
2021/08/01 07:57:59;;;;;;;;;;;19.10;99.90;;;18.29;74.94;100594.00;3550659;39;103263;-39
2021/08/01 08:00:26;;;;;;;;;;;19.20;99.90;;;18.63;73.04;100588.06;3550636;39;102805;-39
2021/08/01 08:02:54;;;;;;;;;;;19.40;99.90;;;18.80;73.72;100594.16;3550767;39;103672;-39
2021/08/01 08:05:21;;;;;;;;;;;19.60;99.90;;;18.99;73.93;100595.63;3550217;39;102182;-40
2021/08/01 08:07:48;;;;;;;;;;;19.70;99.90;;;18.90;70.99;100598.06;3681822;22;102868;-40
2021/08/01 08:10:16;;;;;;;;;;;19.80;99.90;;;19.07;70.08;100606.13;3550348;39;102844;-41
2021/08/01 08:12:44;;;;;;;;;;;19.90;99.90;;;19.28;69.25;100609.72;3550818;39;104113;-41
2021/08/01 08:15:12;;;;;;;;;;;20.10;99.90;;;19.27;68.61;100599.75;3550702;39;102402;-41
2021/08/01 08:17:40;;;;;;;;;;;20.10;99.90;;;19.23;67.50;100601.41;3550366;39;104008;-41
2021/08/01 08:20:08;;;;;;;;;;;20.10;99.90;;;19.12;69.46;100606.13;3550933;39;102414;-41
2021/08/01 08:22:36;;;;;;;;;;;20.00;99.90;;;19.25;69.37;100613.03;3550696;39;102299;-41
2021/08/01 08:25:05;;;;;;;;;;;20.10;99.90;;;19.16;67.86;100623.00;3549399;39;103069;-43
2021/08/01 08:27:33;;;;;;;;;;;20.10;99.90;;;18.93;67.65;100617.66;3550110;39;103022;-42
2021/08/01 08:30:01;;;;;;;;;;;20.00;99.90;;;18.79;68.69;100616.56;3550447;39;102380;-44
2021/08/01 08:36:42;;;;;;;;;;;19.70;99.90;;;18.74;70.54;100614.59;3550512;39;102313;-41
2021/08/01 08:39:09;;;;;;;;;;;19.70;99.90;;;18.65;69.40;100616.25;3550425;39;102433;-41
2021/08/01 08:41:37;;;;;;;;;;;19.70;99.90;;;18.79;69.35;100624.84;3550192;39;102503;-41
2021/08/01 08:44:04;;;;;;;;;;;19.70;99.90;;;18.78;70.25;100624.00;3550122;39;102283;-41
2021/08/01 08:46:34;;;;;;;;;;;19.70;99.90;;;18.51;68.05;100625.03;3549657;39;102231;-41
2021/08/01 08:49:09;;;;;;;;;;;19.60;99.90;;;18.58;72.50;100626.72;3550435;39;102416;-42
2021/08/01 08:51:39;;;;;;;;;;;19.60;99.90;;;18.58;69.93;100621.19;3550737;39;102287;-43
2021/08/01 08:54:11;;;;;;;;;;;19.60;99.90;;;18.55;71.25;100628.91;3550304;39;103129;-41
2021/08/01 08:56:44;;;;;;;;;;;19.50;99.90;;;18.62;69.62;100634.19;3550274;39;102201;-41
2021/08/01 08:59:17;;;;;;;;;;;19.60;99.90;;;18.49;67.73;100642.97;3550341;39;102682;-41
2021/08/01 09:01:45;;;;;;;;;;;19.50;99.90;;;18.31;66.60;100639.59;3550503;39;102284;-41
2021/08/01 09:04:17;;;;;;;;;;;19.50;99.90;;;18.33;65.57;100637.38;3550375;39;103135;-41
2021/08/01 09:06:51;;;;;;;;;;;19.40;99.90;;;18.40;68.15;100642.66;3550029;39;102331;-41
2021/08/01 09:09:23;;;;;;;;;;;19.40;99.90;;;18.44;68.20;100640.22;3549646;39;102322;-41
2021/08/01 09:11:53;;;;;;;;;;;19.40;99.90;;;18.76;71.60;100648.31;3550133;39;102181;-41
2021/08/01 09:14:26;;;;;;;;;;;19.60;99.90;;;18.91;68.88;100650.28;3550249;39;102221;-42
2021/08/01 09:16:58;;;;;;;;;;;19.70;99.90;;;18.96;67.10;100649.47;3549874;39;102289;-41
2021/08/01 09:19:44;;;;;;;;;;;19.80;99.90;;;18.80;63.22;100649.41;3549982;39;102197;-41
2021/08/01 09:22:18;;;;;;;;;;;19.90;99.90;;;18.76;64.89;100655.78;3550019;39;102229;-42
2021/08/01 09:24:51;;;;;;;;;;;19.80;99.90;;;18.82;65.25;100658.25;3550377;39;102217;-41
2021/08/01 09:27:34;;;;;;;;;;;19.80;99.90;;;18.98;67.69;100661.13;3550199;39;102177;-41
2021/08/01 09:30:04;;;;;;;;;;;19.90;99.90;;;18.95;65.06;100658.88;3549810;39;102251;-40
2021/08/01 09:32:46;;;;;;;;;;;19.90;99.90;;;18.76;63.85;100661.31;3550041;39;102884;-44
2021/08/01 09:35:20;;;;;;;;;;;19.90;99.90;;;18.75;66.79;100662.41;3549902;39;103125;-41
2021/08/01 09:37:58;;;;;;;;;;;19.80;99.90;;;18.91;66.96;100666.03;3549819;39;102499;-42
2021/08/01 09:40:29;;;;;;;;;;;19.90;99.90;;;18.98;64.17;100661.13;3549857;39;102246;-41
2021/08/01 09:43:08;;;;;;;;;;;19.90;99.90;;;19.12;65.96;100658.66;3550035;39;102419;-41
2021/08/01 09:45:37;;;;;;;;;;;20.00;99.90;;;19.11;64.47;100657.00;3550284;39;104222;-41
2021/08/01 09:48:19;;;;;;;;;;;20.10;99.90;;;19.33;68.20;100665.03;3550122;39;102399;-41
2021/08/01 09:51:01;;;;;;;;;;;20.20;99.90;;;19.53;66.92;100663.38;3549858;39;103107;-41
2021/08/01 09:53:30;;;;;;;;;;;20.30;99.90;;;19.87;65.31;100660.00;3550036;39;102328;-41
2021/08/01 09:56:26;;;;;;;;;;;20.60;99.90;;;20.35;64.37;100664.38;3550171;39;102371;-41
2021/08/01 09:58:54;;;;;;;;;;;20.80;99.90;;;20.55;62.98;100657.91;3548125;39;102434;-41
2021/08/01 10:01:21;;;;;;;;;;;21.10;99.90;;;20.59;64.25;100658.16;3551546;39;102307;-41
2021/08/01 10:03:49;;;;;;;;;;;21.30;99.90;;;20.27;62.28;100655.53;3551176;39;102259;-44
2021/08/01 10:06:21;;;;;;;;;;;21.20;99.90;;;19.94;64.08;100663.38;3551239;39;102228;-42
2021/08/01 10:08:53;;;;;;;;;;;20.90;99.90;;;19.98;63.23;100655.31;3550916;39;102454;-44
2021/08/01 10:11:24;;;;;;;;;;;20.90;99.90;;;19.97;62.40;100659.19;3551170;39;103321;-41
2021/08/01 10:13:53;;;;;;;;;;;20.90;99.90;;;19.81;63.14;100648.16;3551235;39;102311;-42
2021/08/01 10:16:22;;;;;;;;;;;20.80;99.90;;;19.94;61.47;100651.47;3551705;39;102287;-41
2021/08/01 10:18:51;;;;;;;;;;;20.80;99.90;;;20.20;63.78;100656.94;3551377;39;102120;-42
2021/08/01 10:21:21;;;;;;;;;;;21.00;99.90;;;20.37;62.13;100645.50;3551341;39;102291;-41
2021/08/01 10:23:55;;;;;;;;;;;21.20;99.90;;;20.09;60.63;100653.34;3550737;39;104080;-41
2021/08/01 10:26:29;;;;;;;;;;;21.20;99.90;;;20.10;62.24;100657.78;3551464;39;102278;-40
2021/08/01 10:28:59;;;;;;;;;;;21.10;99.90;;;19.93;61.43;100656.19;3550867;39;102439;-41
2021/08/01 10:31:32;;;;;;;;;;;21.00;99.90;;;19.95;61.14;100651.19;3550996;39;103991;-41
2021/08/01 10:33:59;;;;;;;;;;;21.00;99.90;;;20.05;61.10;100646.72;3550723;39;102112;-40
2021/08/01 10:36:29;;;;;;;;;;;21.00;99.90;;;20.08;61.94;100652.56;3550086;39;103228;-44
2021/08/01 10:39:00;;;;;;;;;;;21.10;99.90;;;20.16;60.81;100644.75;3551546;39;102659;-41
2021/08/01 10:41:33;;;;;;;;;;;21.10;99.90;;;20.34;62.92;100646.09;3550893;39;103271;-41
2021/08/01 10:44:12;;;;;;;;;;;21.20;99.90;;;20.34;62.42;100644.16;3550973;39;102370;-43
2021/08/01 10:46:42;;;;;;;;;;;21.20;99.90;;;20.38;62.46;100644.41;3550874;39;102321;-41
2021/08/01 10:49:10;;;;;;;;;;;21.30;99.90;;;20.38;61.36;100653.56;3551361;39;102172;-41
2021/08/01 10:51:39;;;;;;;;;;;21.30;99.90;;;20.55;60.82;100657.91;3551365;39;102634;-41
2021/08/01 10:54:23;;;;;;;;;;;21.40;99.90;;;20.71;60.57;100653.13;3551100;39;102493;-41
2021/08/01 10:57:13;;;;;;;;;;;21.50;99.90;;;21.16;63.90;100655.09;3551244;39;102223;-41
2021/08/01 10:59:43;;;;;;;;;;;21.80;99.90;;;21.22;59.26;100662.28;3551596;39;102391;-41
2021/08/01 11:02:14;;;;;;;;;;;21.90;99.90;;;21.13;58.92;100654.56;3551238;39;105002;-41
2021/08/01 11:04:45;;;;;;;;;;;21.90;99.90;;;21.21;58.58;100652.28;3550832;39;102370;-41
2021/08/01 11:07:27;;;;;;;;;;;21.90;99.90;;;21.63;58.07;100653.59;3550770;39;102192;-41
2021/08/01 11:10:17;;;;;;;;;;;22.20;99.90;;;21.77;58.15;100652.97;3550901;39;102184;-41
2021/08/01 11:12:44;;;;;;;;;;;22.40;99.90;;;21.47;58.37;100649.31;3550859;39;102556;-41
2021/08/01 11:15:14;;;;;;;;;;;22.40;99.90;;;21.42;57.80;100641.88;3551060;39;102548;-41
2021/08/01 11:17:54;;;;;;;;;;;22.40;99.90;;;21.78;59.63;100643.53;3551156;39;102355;-41
2021/08/01 11:20:22;;;;;;;;;;;22.50;99.90;;;21.72;56.05;100639.13;3550752;39;103056;-41
2021/08/01 11:22:56;;;;;;;;;;;22.60;99.90;;;21.73;57.16;100647.16;3551404;39;103221;-41
2021/08/01 11:25:25;;;;;;;;;;;22.50;99.90;;;21.62;58.19;100651.97;3550722;39;102342;-41